Gustavo Pinto

Olheiro - Feirense
9 Jul 2028
Domingo
Processo

Personalidade

Adaptabilidade (7) Ambição (13) Controvérsia (4) Lealdade (4) Pressão (7) Profissionalismo (14) Espírito Esportivo (11) Temperamento (10)

Perfil

Estilo de Treinamento Democrático
Licença Nacional B
Determinação 5
Gestão de Pessoas 11
Motivação 5
Disciplina 7
Satisfação no Trabalho
100%
Fadiga
0%
Função Olheiro
Salário 35.6K p/s
Contrato 14.03.2029

Desempenho

Comportamento Bom
Eficácia do Treinamento
46%
Desenvolvimento do Jogador
20%
Prevenção de Lesões
25%
Implementação Tática
35%

Eventos Recentes

Participou de uma reunião de recrutamento agora
Recomendou um alvo de transferência agora
Participou de uma reunião de recrutamento 7d atrás
Recomendou um alvo de transferência 7d atrás
Recomendou um alvo de transferência 7d atrás
Recomendou um alvo de transferência 14d atrás
Recomendou um alvo de transferência 14d atrás
Apresentou um dossiê à direção 14d atrás

Monitorando agora

63
Jogador Clube Status Habilidade Confiança Observado Última observação Último voto
Walterson Pacos de Ferreira Relatório pronto 97 / 109 72% 1 12.06.2028 -
Nicolás Salinas Tondela Relatório pronto 101 / 106 72% 1 01.06.2028 -
Mohammed Bouldini Académico de Viseu Ativo 114 / 129 69% 1 14.06.2027 Aprovar
Simo Maritimo Ativo 111 / 113 40% 3 04.04.2027 -
Shea Charles Southampton Ativo 142 / 146 40% 1 04.04.2027 -
Scott Twine Bristol City Ativo 122 / 131 40% 1 04.04.2027 -
Santi García Gil Vicente Ativo 126 / 145 40% 3 02.04.2027 -
Mikey Johnston West Bromwich Albion Ativo 127 / 115 40% 2 02.04.2027 -
Lee Hyun-Ju Arouca Ativo 127 / 116 40% 1 31.03.2027 -
Rocco Vata Watford Ativo 123 / 116 40% 2 30.03.2027 -
Sam Greenwood Bristol City Ativo 127 / 120 40% 3 30.03.2027 -
Tyrese Campbell Sheffield United Ativo 130 / 117 40% 4 26.03.2027 -
John Mercado Sparta Prague Ativo 131 / 131 40% 2 26.03.2027 -
Rafik Guitane Estoril Praia Ativo 137 / 121 40% 2 25.03.2027 -
Bongani Zungu Ajax Cape Town Ativo 126 / 122 40% 1 25.03.2027 -
Martín Tejón Maritimo Ativo 115 / 110 40% 5 24.03.2027 -
Yanis Begraoui Estoril Praia Ativo 140 / 127 40% 4 24.03.2027 -
Vinícius Lopes Santa Clara Ativo 121 / 132 40% 2 20.03.2027 -
Manu Pozo Torreense Ativo 128 / 113 40% 3 16.03.2027 -
Cian Ashford Cardiff City Ativo 112 / 126 40% 1 16.03.2027 -
Ilias Sebaoui Sint-Truiden Ativo 134 / 116 40% 3 14.03.2027 -
Samuel Edozie Southampton Ativo 130 / 135 40% 1 14.03.2027 -
Isaiah Jones Luton Town Ativo 120 / 114 40% 2 10.03.2027 -
Justo Giani Umraniyespor Ativo 136 / 126 40% 1 05.03.2027 -
Max Bird Birmingham Ativo 132 / 140 40% 1 05.03.2027 -
Jackson Muleka Konyaspor Ativo 141 / 124 40% 2 04.03.2027 -
Derensili Sanches Fernandes Huddersfield Town Ativo 133 / 114 40% 1 04.03.2027 -
Lorougnon Gohi Académico de Viseu Ativo 122 / 109 40% 1 28.02.2027 -
Alfonso Trezza Arouca Ativo 122 / 123 40% 1 26.02.2027 -
Malik Mothersille Stockport County Ativo 114 / 117 40% 2 24.02.2027 -
Alex Robertson Cardiff City Ativo 122 / 125 40% 1 21.02.2027 -
Oswin Appollis Orlando Pirates Ativo 135 / 120 40% 1 16.02.2027 -
Max Johnston Derby County Ativo 121 / 123 40% 1 14.02.2027 -
Alessio Zerbin Frosinone Ativo 136 / 129 40% 1 10.02.2027 -
Ar'jany Martha Rotherham United Ativo 106 / 108 40% 1 06.02.2027 -
Henrique Araújo Casa Pia Ativo 113 / 118 40% 2 26.12.2026 -
Tamble Monteiro Rio Ave Ativo 128 / 123 40% 2 23.12.2026 -
Patrick Agyemang Derby County Ativo 129 / 131 40% 1 22.12.2026 -
Erick Dolly Black Aces Ativo 114 / 122 40% 1 18.12.2026 -
Sam Bell Bristol City Ativo 123 / 122 40% 1 17.12.2026 -
Dylan Collard Lusitânia Lourosa Ativo 118 / 113 40% 1 14.12.2026 -
Ilyas Ansah Hull City Ativo 132 / 145 40% 2 13.12.2026 -
Jacques Siwe Rubin Ativo 109 / 115 40% 1 13.12.2026 -
Chukwubuikem Ikwuemesi OH Leuven Ativo 124 / 117 40% 1 13.12.2026 -
Josh Coburn Millwall Ativo 113 / 120 40% 1 11.12.2026 -
Brooklyn Poggenpoel Maritzburg United Ativo 120 / 96 40% 1 07.12.2026 -
Aldair Faustino Levski Ativo 123 / 136 40% 1 02.12.2026 -
Zé Leite Moreirense Ativo 120 / 104 40% 1 02.12.2026 -
Wessam Abou Ali Columbus Crew Ativo 136 / 132 40% 2 01.12.2026 -
Dinis Pinto Moreirense Ativo 137 / 127 40% 1 29.11.2026 -
Lebogang Manyama SuperSport United Ativo 118 / 110 40% 1 29.11.2026 -
Michael Baidoo Plymouth Argyle Ativo 127 / 122 40% 1 29.11.2026 -
Sorriso Famalicao Ativo 129 / 140 40% 1 23.11.2026 -
Lorent Tolaj Plymouth Argyle Ativo 121 / 120 40% 1 18.11.2026 -
Joe Gelhardt Hull City Ativo 132 / 135 40% 1 17.11.2026 -
Yousef Salech Cardiff City Ativo 118 / 113 40% 1 12.11.2026 -
Martín Ojeda Orlando City Ativo 135 / 129 40% 2 10.11.2026 -
Lucas Varaldo Morelia Ativo 128 / 104 40% 1 09.11.2026 -
Daniel Karlsbakk Sarpsborg 08 Ativo 127 / 111 40% 1 07.11.2026 -
Matej Trusa DAC Dunajska Streda Ativo 104 / 97 40% 1 04.11.2026 -
Alisson Souza Estrela da Amadora Ativo 80 / 97 69% 1 17.08.2026 Aprovar
Facundo Bonifazi Paysandu Ativo 95 / 103 40% 1 01.08.2026 -
Sabino Sport Recife Ativo 134 / 124 40% 1 01.08.2026 -